Archival Weather

Chicago O'Hare International

Chicago, Illinois (KORD)

Report from: Saturday, August 6, 2022 3:51 AM CDT
Current time: Tuesday, August 16, 2022 2:48 AM CDT

Current weather
Weather history
Weather forecast

Temperature23.9°C (75.0°F)
Dew point21.7°C (71.1°F)
Winds 3 kts (1.5 m/s, 3.5 mph) South-Southwest (210°)
Visibility10 mi. (16.1 km)
Clouds Sky clear
Altimeter30.07 in.Hg (1018 mB)
Relative humidity88 %
Density altitude1,213 ft. (370 m)
Sea-level pressure101.8 kPa (1018 mB, 30.06 in.Hg)
Remarks Automated weather observing station with precipitation discriminator
Pressure rising more quickly
Flight conditions Visual Meteorological Conditions
Raw dataKORD 060851Z 21003KT 10SM CLR 24/22 A3007 RMK AO2 SLP178 T02390217 53002
An error has occurred. This application may no longer respond until reloaded. Reload 🗙